Flynn, TX (77855)

11:25 AM CDT on June 02, 2015 (GMT -0500)
Lazy R Ranch | | Change Station
CLOSE
Current Station
Personal Weather Station
Location: Normangee, TX
Elevation: 479 ft
Nearby Weather Stations
Active Advisory: Flood Warning

Elev 479 ft 31.14 °N, 96.10 °W | Updated 13 minutes ago

Clear
Clear
86.2 °F
Feels Like 89 °F
N
5.8
Wind Variable Wind from ESE

Today
High -- | Low -- °F
--% Chance of Precip.
Yesterday
High -- | Low -- °F
Precip. -- in
6:21 AM 8:24 PM
Full, 100% visible
Pressure 30.05 in
Visibility 10.0 miles
Clouds Clear
Heat Index 89 °F
Dew Point 66 °F
Humidity 52%
Rainfall 0.00 in
Snow Depth Not available.
UV 10 out of 12
Pollen 5.60 out of 12
Air Quality Not available.
Flu Activity Local Activity
METAR KCFD 021615Z AUTO 00000KT 10SM CLR 27/19 A3005 RMK AO2 T02720191

More Conditions Fewer Conditions

Pressure 30.05 in
Visibility 10.0 miles
Clouds Clear
Heat Index 89 °F
Dew Point 66 °F
Humidity 52%
Rainfall 0.00 in
Snow Depth Not available.
UV 10 out of 12
Pollen 5.60 out of 12
Air Quality Not available.
Flu Activity Local Activity
METAR KCFD 021615Z AUTO 00000KT 10SM CLR 27/19 A3005 RMK AO2 T02720191

More Conditions Fewer Conditions

Nowcast | as of 11:13 am CDT on June 2, 2015

Spotty light showers or sprinkles are possible of an Eastland...to Comanche...to Goldthwaite line through 3 PM CDT. Any rainfall will be very light with only trace amounts expected. Otherwise...partly sunny skies will continue with south winds 10 to 15 mph and temperatures warming into the mid and upper 80 through mid afternoon.

×

10-Day Weather Forecast

Almanac

Astronomy

Jun. 02, 2015 Rise Set
Actual Time
Civil Twilight
Nautical Twilight
Astronomical Twilight
Moon
Length of Visible Light
Length of Day
Tomorrow will be .
, % of the Moon is Illuminated

Today's Extremes

State Highs State Lows

Community

WunderPhotos

Upload Photos

1,825,974 photos uploaded!

WunderBlogs® & News

Nearby

Air Quality

  Air Quality AQ Index Pollutant
Not available.

Snow Depth

Station Depth Elevation

Earthquake Activity

City Distance Mag. Time & Date
Minimum magnitude displayed is 2.5.

Coastal Water Temperatures

Place Temperature

Stations

Nearby Weather Stations

Station Location Temp. Windchill Dew Point Humidity Wind Precip. Elev Updated Type
                   
Flood Warning
Statement as of 9:36 AM CDT on June 02, 2015

The Flood Warning continues for
the Trinity River near Long Lake.
* At 0933 am Tuesday the stage was 46.95 feet.
* Flood stage is 35 feet.
* Major flooding is occurring and major flooding is forecast.
* Forecast... the river will continue rising to near 47 feet by
Tuesday afternoon. Additional rises may be possible thereafter.
* Forecast... the river will crest near 47 feet Tuesday afternoon
then remain above flood for the next few days.


Lat... Lon 3170 9593 3150 9580 3149 9562 3173 9580